createdAt,value
2022-09-20T00:01:07.906Z,2.83
2022-09-20T00:03:38.907Z,3.05
2022-09-20T00:06:06.551Z,3.20
2022-09-20T00:08:33.163Z,2.90
2022-09-20T00:11:01.588Z,2.63
2022-09-20T00:13:28.374Z,2.72
2022-09-20T00:15:54.773Z,3.40
2022-09-20T00:18:21.149Z,3.17
2022-09-20T00:20:47.946Z,2.92
2022-09-20T00:23:14.763Z,2.80
2022-09-20T00:25:41.619Z,3.13
2022-09-20T00:28:08.245Z,2.50
2022-09-20T00:30:35.035Z,2.28
2022-09-20T00:33:01.384Z,2.38
2022-09-20T00:35:29.357Z,2.60
2022-09-20T00:37:55.879Z,2.58
2022-09-20T00:40:22.830Z,2.20
2022-09-20T00:42:49.579Z,2.60
2022-09-20T00:45:23.979Z,2.63
2022-09-20T00:48:10.547Z,2.15
2022-09-20T00:50:47.091Z,2.15
2022-09-20T00:53:16.585Z,2.20
2022-09-20T00:55:45.628Z,4.13
2022-09-20T00:58:12.656Z,2.40
2022-09-20T01:00:39.868Z,2.90
2022-09-20T01:03:07.665Z,3.47
2022-09-20T01:05:34.454Z,2.05
2022-09-20T01:08:00.993Z,2.47
2022-09-20T01:10:27.361Z,2.20
2022-09-20T01:12:53.832Z,2.25
2022-09-20T01:15:20.845Z,1.85
2022-09-20T01:17:49.459Z,1.88
2022-09-20T01:20:18.586Z,2.20
2022-09-20T01:22:52.831Z,2.35
2022-09-20T01:25:19.204Z,2.58
2022-09-20T01:27:45.491Z,1.95
2022-09-20T01:30:13.587Z,2.10
2022-09-20T01:32:58.629Z,2.40
2022-09-20T01:35:26.270Z,2.35
2022-09-20T01:38:04.583Z,2.50
2022-09-20T01:40:44.836Z,2.15
2022-09-20T01:43:30.051Z,1.90
2022-09-20T01:45:58.319Z,1.88
2022-09-20T01:48:42.771Z,2.50
2022-09-20T01:51:12.187Z,2.00
2022-09-20T01:53:55.277Z,2.05
2022-09-20T01:56:40.259Z,1.80
2022-09-20T01:59:24.612Z,2.00
2022-09-20T02:01:54.285Z,2.10
2022-09-20T02:04:40.399Z,1.98
2022-09-20T02:07:06.667Z,1.90
2022-09-20T02:09:52.135Z,2.00
2022-09-20T02:12:33.762Z,2.08
2022-09-20T02:15:00.355Z,2.10
2022-09-20T02:17:26.625Z,2.50
2022-09-20T02:20:11.889Z,1.85
2022-09-20T02:22:44.416Z,1.85
2022-09-20T02:25:17.886Z,2.20
2022-09-20T02:27:47.182Z,1.85
2022-09-20T02:32:47.977Z,1.50
2022-09-20T02:35:20.165Z,1.73
2022-09-20T02:38:05.358Z,2.30
2022-09-20T02:40:40.524Z,2.78
2022-09-20T02:43:14.579Z,2.92
2022-09-20T02:45:59.398Z,2.63
2022-09-20T02:48:29.031Z,2.83
2022-09-20T02:51:01.531Z,2.47
2022-09-20T02:53:40.286Z,2.20
2022-09-20T02:56:12.565Z,2.10
2022-09-20T02:59:08.309Z,2.78
2022-09-20T03:01:40.872Z,1.80
2022-09-20T03:04:22.602Z,2.20
2022-09-20T03:06:57.713Z,1.85
2022-09-20T03:09:47.372Z,1.77
2022-09-20T03:12:13.695Z,2.00
2022-09-20T03:15:06.482Z,2.40
2022-09-20T03:17:42.363Z,1.80
2022-09-20T03:20:08.719Z,2.10
2022-09-20T03:22:37.907Z,2.15
2022-09-20T03:27:34.699Z,2.10
2022-09-20T03:30:21.259Z,2.17
2022-09-20T03:33:06.384Z,1.98
2022-09-20T03:35:39.012Z,2.53
2022-09-20T03:38:24.198Z,2.28
2022-09-20T03:40:50.552Z,2.20
2022-09-20T03:43:26.559Z,2.15
2022-09-20T03:46:15.633Z,2.30
2022-09-20T03:48:50.758Z,2.17
2022-09-20T03:51:34.378Z,2.22
2022-09-20T03:54:10.699Z,2.20
2022-09-20T03:56:43.688Z,2.20
2022-09-20T03:59:28.784Z,2.58
2022-09-20T04:02:14.423Z,2.42
2022-09-20T04:04:46.151Z,2.22
2022-09-20T04:07:16.444Z,2.70
2022-09-20T04:09:54.825Z,2.35
2022-09-20T04:12:40.303Z,2.53
2022-09-20T04:15:12.861Z,2.65
2022-09-20T04:17:45.174Z,2.08
2022-09-20T04:20:27.622Z,2.38
2022-09-20T04:22:56.075Z,2.25
2022-09-20T04:25:27.709Z,2.20
2022-09-20T04:27:56.972Z,2.60
2022-09-20T04:33:12.098Z,2.33
2022-09-20T04:36:00.256Z,2.47
2022-09-20T04:38:26.745Z,1.88
2022-09-20T04:41:14.859Z,2.00
2022-09-20T04:44:00.087Z,2.20
2022-09-20T04:46:39.373Z,1.95
2022-09-20T04:49:24.507Z,2.28
2022-09-20T04:51:54.311Z,2.55
2022-09-20T04:54:39.499Z,2.17
2022-09-20T04:57:18.305Z,2.00
2022-09-20T05:00:07.434Z,2.17
2022-09-20T05:02:49.107Z,2.58
2022-09-20T05:05:21.402Z,2.35
2022-09-20T05:07:48.378Z,2.60
2022-09-20T05:10:30.095Z,2.38
2022-09-20T05:13:10.992Z,2.50
2022-09-20T05:15:41.154Z,1.98
2022-09-20T05:18:16.472Z,2.72
2022-09-20T05:20:46.152Z,2.50
2022-09-20T05:23:35.568Z,2.72
2022-09-20T05:26:07.935Z,3.10
2022-09-20T05:28:53.738Z,2.50
2022-09-20T05:31:52.615Z,4.10
2022-09-20T05:34:23.153Z,3.50
2022-09-20T05:37:08.321Z,7.28
2022-09-20T05:39:49.872Z,5.40
2022-09-20T05:42:40.060Z,6.45
2022-09-20T05:45:17.529Z,7.05
2022-09-20T05:47:43.949Z,9.93
2022-09-20T05:50:25.684Z,5.85
2022-09-20T05:52:58.539Z,6.10
2022-09-20T05:55:43.655Z,4.65
2022-09-20T05:58:33.250Z,5.00
2022-09-20T06:01:07.198Z,4.30
2022-09-20T06:03:37.214Z,4.88
2022-09-20T06:06:14.654Z,5.57
2022-09-20T06:08:50.084Z,5.57
2022-09-20T06:11:40.950Z,3.67
2022-09-20T06:14:20.132Z,3.63
2022-09-20T06:16:55.330Z,3.20
2022-09-20T06:19:27.368Z,3.40
2022-09-20T06:21:54.756Z,3.10
2022-09-20T06:24:21.831Z,2.85
2022-09-20T06:26:51.861Z,3.20
2022-09-20T06:29:19.944Z,3.40
2022-09-20T06:31:46.255Z,3.00
2022-09-20T06:34:14.497Z,2.55
2022-09-20T06:37:00.954Z,2.63
2022-09-20T06:39:58.724Z,3.35
2022-09-20T06:42:27.338Z,2.60
2022-09-20T06:44:53.783Z,3.00
2022-09-20T06:47:20.082Z,2.97
2022-09-20T06:49:47.718Z,3.22
2022-09-20T06:52:15.083Z,2.83
2022-09-20T06:54:45.628Z,3.83
2022-09-20T06:57:14.279Z,3.00
2022-09-20T06:59:40.622Z,3.22
2022-09-20T07:02:08.258Z,3.15
2022-09-20T07:04:35.056Z,3.10
2022-09-20T07:07:04.176Z,3.10
2022-09-20T07:09:33.721Z,2.83
2022-09-20T07:12:00.142Z,2.83
2022-09-20T07:14:27.172Z,3.45
2022-09-20T07:16:54.307Z,2.97
2022-09-20T07:19:20.865Z,3.00
2022-09-20T07:21:47.214Z,2.33
2022-09-20T07:24:15.089Z,3.03
2022-09-20T07:26:54.554Z,2.80
2022-09-20T07:29:20.928Z,2.40
2022-09-20T07:31:47.990Z,2.58
2022-09-20T07:34:14.315Z,2.17
2022-09-20T07:36:40.674Z,2.17
2022-09-20T07:39:07.021Z,2.30
2022-09-20T07:41:33.332Z,2.58
2022-09-20T07:44:19.643Z,2.53
2022-09-20T07:46:50.267Z,2.00
2022-09-20T07:49:17.206Z,1.90
2022-09-20T07:51:43.604Z,1.92
2022-09-20T07:54:10.031Z,2.15
2022-09-20T07:56:36.655Z,2.13
2022-09-20T07:59:03.357Z,1.50
2022-09-20T08:01:29.819Z,1.60
2022-09-20T08:03:57.211Z,1.48
2022-09-20T08:06:24.318Z,1.83
2022-09-20T08:08:51.702Z,2.08
2022-09-20T08:11:19.684Z,1.98
2022-09-20T08:16:37.930Z,2.08
2022-09-20T08:19:04.360Z,1.73
2022-09-20T08:21:31.817Z,1.83
2022-09-20T08:23:58.920Z,1.60
2022-09-20T08:26:25.890Z,1.88
2022-09-20T08:28:53.908Z,1.85
2022-09-20T08:31:21.360Z,2.33
2022-09-20T08:33:48.573Z,2.05
2022-09-20T08:36:16.417Z,1.25
2022-09-20T08:41:48.262Z,1.50
2022-09-20T08:44:25.155Z,1.52
2022-09-20T08:47:19.409Z,2.00
2022-09-20T08:49:46.759Z,1.85
2022-09-20T08:52:17.979Z,1.63
2022-09-20T08:54:46.850Z,1.63
2022-09-20T08:59:40.808Z,1.45
2022-09-20T09:02:17.983Z,1.52
2022-09-20T09:04:48.716Z,1.65
2022-09-20T09:07:17.014Z,1.42
2022-09-20T09:09:44.599Z,1.20
2022-09-20T09:12:24.969Z,1.25
2022-09-20T09:14:55.143Z,1.13
2022-09-20T09:17:27.307Z,1.33
2022-09-20T09:19:54.121Z,1.30
2022-09-20T09:22:22.425Z,1.10
2022-09-20T09:25:07.608Z,1.60
2022-09-20T09:27:35.279Z,1.42
2022-09-20T09:30:01.796Z,1.10
2022-09-20T09:32:31.087Z,0.93
2022-09-20T09:35:18.559Z,1.30
2022-09-20T09:37:53.394Z,1.25
2022-09-20T09:40:19.831Z,1.20
2022-09-20T09:42:50.210Z,0.93
2022-09-20T09:45:46.111Z,1.20
2022-09-20T09:48:32.897Z,1.15
2022-09-20T09:51:15.290Z,1.02
2022-09-20T09:53:42.282Z,1.10
2022-09-20T09:56:14.174Z,1.10
2022-09-20T09:58:44.804Z,1.08
2022-09-20T10:01:23.377Z,1.10
2022-09-20T10:04:01.286Z,1.00
2022-09-20T10:06:34.080Z,1.25
2022-09-20T10:09:00.386Z,1.58
2022-09-20T10:11:30.019Z,1.17
2022-09-20T10:14:17.684Z,1.10
2022-09-20T10:17:02.544Z,1.52
2022-09-20T10:19:28.841Z,1.30
2022-09-20T10:21:56.880Z,1.20
2022-09-20T10:24:51.532Z,1.42
2022-09-20T10:27:33.366Z,1.15
2022-09-20T10:30:04.640Z,1.00
2022-09-20T10:32:40.198Z,1.35
2022-09-20T10:35:13.999Z,1.40
2022-09-20T10:37:49.390Z,1.70
2022-09-20T10:40:16.029Z,1.10
2022-09-20T10:43:05.930Z,1.30
2022-09-20T10:46:14.492Z,1.30
2022-09-20T10:48:41.170Z,1.23
2022-09-20T10:51:17.459Z,1.10
2022-09-20T10:53:59.706Z,1.02
2022-09-20T10:56:47.094Z,0.70
2022-09-20T10:59:32.484Z,1.20
2022-09-20T11:02:01.892Z,0.75
2022-09-20T11:04:34.456Z,0.80
2022-09-20T11:07:02.734Z,0.80
2022-09-20T11:09:36.079Z,0.95
2022-09-20T11:12:05.561Z,0.60
2022-09-20T11:14:34.915Z,0.70
2022-09-20T11:17:31.881Z,1.10
2022-09-20T11:20:06.205Z,0.85
2022-09-20T11:22:40.366Z,0.80
2022-09-20T11:25:14.842Z,0.77
2022-09-20T11:27:46.228Z,0.98
2022-09-20T11:30:16.473Z,0.70
2022-09-20T11:33:12.155Z,0.68
2022-09-20T11:35:51.865Z,1.20
2022-09-20T11:38:26.093Z,0.80
2022-09-20T11:40:56.065Z,0.90
2022-09-20T11:43:22.671Z,0.80
2022-09-20T11:45:52.182Z,0.75
2022-09-20T11:48:21.954Z,0.93
2022-09-20T11:50:48.305Z,0.65
2022-09-20T11:53:27.972Z,0.60
2022-09-20T11:55:59.011Z,1.23
2022-09-20T11:58:27.256Z,0.80
2022-09-20T12:00:58.545Z,1.20
2022-09-20T12:03:33.918Z,0.80
2022-09-20T12:06:05.028Z,0.85
2022-09-20T12:08:33.415Z,0.90
2022-09-20T12:11:04.821Z,0.60
2022-09-20T12:13:32.929Z,0.68
2022-09-20T12:16:05.553Z,0.90
2022-09-20T12:18:35.795Z,0.90
2022-09-20T12:21:04.118Z,1.00
2022-09-20T12:23:42.585Z,0.90
2022-09-20T12:26:13.179Z,0.85
2022-09-20T12:28:44.320Z,0.90
2022-09-20T12:31:32.403Z,0.90
2022-09-20T12:33:59.192Z,0.57
2022-09-20T12:36:26.957Z,0.57
2022-09-20T12:39:05.647Z,0.63
2022-09-20T12:41:50.959Z,0.60
2022-09-20T12:44:20.309Z,0.70
2022-09-20T12:46:52.654Z,0.73
2022-09-20T12:49:41.304Z,0.73
2022-09-20T12:52:41.576Z,0.57
2022-09-20T12:55:11.234Z,0.70
2022-09-20T12:57:38.189Z,0.70
2022-09-20T13:00:06.945Z,0.82
2022-09-20T13:04:59.596Z,0.80
2022-09-20T13:07:33.152Z,0.60
2022-09-20T13:10:03.184Z,0.50
2022-09-20T13:12:29.813Z,0.63
2022-09-20T13:14:56.543Z,0.80
2022-09-20T13:17:27.337Z,0.77
2022-09-20T13:19:54.920Z,0.82
2022-09-20T13:22:26.558Z,0.40
2022-09-20T13:24:56.600Z,0.73
2022-09-20T13:27:29.046Z,0.82
2022-09-20T13:29:55.644Z,0.75
2022-09-20T13:32:21.937Z,0.60
2022-09-20T13:35:04.640Z,0.70
2022-09-20T13:37:31.159Z,0.55
2022-09-20T13:39:58.521Z,0.55
2022-09-20T13:42:26.319Z,0.75
2022-09-20T13:44:52.916Z,0.60
2022-09-20T13:47:30.092Z,0.90
2022-09-20T13:50:10.044Z,0.60
2022-09-20T13:52:44.205Z,0.50
2022-09-20T13:55:22.708Z,0.68
2022-09-20T13:57:49.217Z,0.75
2022-09-20T14:00:15.875Z,1.20
2022-09-20T14:02:42.382Z,1.15
2022-09-20T14:05:15.573Z,0.88
2022-09-20T14:07:44.082Z,0.90
2022-09-20T14:10:28.717Z,0.70
2022-09-20T14:12:55.487Z,0.90
2022-09-20T14:15:22.151Z,0.80
2022-09-20T14:17:48.992Z,0.73
2022-09-20T14:20:16.965Z,0.60
2022-09-20T14:22:44.064Z,0.80
2022-09-20T14:25:13.513Z,0.90
2022-09-20T14:27:40.047Z,0.88
2022-09-20T14:30:07.392Z,0.88
2022-09-20T14:32:36.890Z,0.55
2022-09-20T14:35:03.709Z,0.80
2022-09-20T14:37:32.669Z,0.98
2022-09-20T14:40:01.087Z,0.70
2022-09-20T14:42:27.617Z,0.93
2022-09-20T14:44:54.167Z,0.70
2022-09-20T14:47:25.803Z,1.27
2022-09-20T14:49:52.353Z,0.80
2022-09-20T14:52:38.405Z,0.70
2022-09-20T14:55:14.012Z,0.88
2022-09-20T14:57:41.016Z,0.90
2022-09-20T15:00:11.999Z,0.50
2022-09-20T15:02:41.309Z,0.70
2022-09-20T15:05:16.946Z,0.93
2022-09-20T15:07:43.424Z,0.73
2022-09-20T15:10:13.314Z,0.60
2022-09-20T15:12:39.779Z,0.85
2022-09-20T15:15:07.122Z,0.70
2022-09-20T15:17:33.578Z,0.90
2022-09-20T15:20:00.141Z,1.05
2022-09-20T15:22:27.513Z,0.80
2022-09-20T15:24:54.202Z,0.90
2022-09-20T15:27:23.039Z,0.70
2022-09-20T15:29:51.395Z,0.80
2022-09-20T15:32:17.924Z,0.82
2022-09-20T15:34:44.571Z,0.80
2022-09-20T15:37:11.009Z,0.82
2022-09-20T15:39:37.276Z,0.90
2022-09-20T15:42:03.964Z,0.90
2022-09-20T15:44:30.384Z,0.70
2022-09-20T15:46:56.759Z,0.68
2022-09-20T15:49:23.076Z,0.82
2022-09-20T15:51:49.497Z,0.77
2022-09-20T15:54:15.839Z,0.65
2022-09-20T15:56:42.582Z,0.90
2022-09-20T15:59:09.865Z,0.80
2022-09-20T16:01:37.539Z,0.73
2022-09-20T16:04:08.179Z,0.95
2022-09-20T16:06:34.620Z,0.93
2022-09-20T16:09:00.999Z,1.13
2022-09-20T16:11:28.028Z,1.40
2022-09-20T16:13:55.080Z,1.20
2022-09-20T16:16:21.901Z,1.20
2022-09-20T16:19:07.148Z,0.85
2022-09-20T16:21:33.898Z,1.10
2022-09-20T16:24:00.704Z,0.93
2022-09-20T16:26:28.065Z,1.00
2022-09-20T16:28:55.733Z,0.90
2022-09-20T16:31:29.229Z,1.00
2022-09-20T16:33:55.727Z,0.93
2022-09-20T16:36:27.300Z,0.80
2022-09-20T16:38:57.230Z,1.00
2022-09-20T16:41:24.128Z,0.88
2022-09-20T16:43:51.500Z,1.00
2022-09-20T16:46:20.404Z,0.93
2022-09-20T16:48:48.404Z,1.10
2022-09-20T16:51:14.961Z,0.90
2022-09-20T16:53:41.440Z,1.20
2022-09-20T16:56:07.891Z,0.82
2022-09-20T16:58:36.454Z,1.30
2022-09-20T17:01:03.864Z,1.02
2022-09-20T17:03:30.230Z,0.93
2022-09-20T17:06:04.115Z,1.10
2022-09-20T17:08:30.407Z,1.10
2022-09-20T17:11:01.174Z,1.27
2022-09-20T17:13:32.833Z,1.10
2022-09-20T17:15:59.999Z,1.50
2022-09-20T17:18:26.331Z,0.85
2022-09-20T17:20:52.627Z,1.00
2022-09-20T17:23:18.930Z,0.82
2022-09-20T17:25:46.217Z,1.00
2022-09-20T17:28:13.562Z,1.00
2022-09-20T17:30:40.160Z,0.93
2022-09-20T17:33:06.847Z,1.10
2022-09-20T17:35:33.182Z,1.08
2022-09-20T17:37:59.495Z,0.88
2022-09-20T17:40:25.865Z,1.40
2022-09-20T17:42:52.206Z,1.83
2022-09-20T17:45:18.677Z,4.15
2022-09-20T17:47:45.544Z,6.28
2022-09-20T17:50:14.749Z,6.05
2022-09-20T17:52:42.171Z,5.03
2022-09-20T17:55:08.577Z,4.05
2022-09-20T17:57:35.083Z,2.78
2022-09-20T18:00:01.982Z,2.45
2022-09-20T18:02:28.505Z,1.70
2022-09-20T18:04:54.980Z,1.85
2022-09-20T18:07:21.307Z,2.03
2022-09-20T18:09:47.971Z,2.00
2022-09-20T18:12:18.884Z,2.40
2022-09-20T18:14:47.247Z,2.00
2022-09-20T18:17:13.528Z,1.92
2022-09-20T18:19:41.244Z,1.80
2022-09-20T18:22:07.621Z,1.60
2022-09-20T18:24:34.201Z,1.70
2022-09-20T18:27:01.042Z,1.30
2022-09-20T18:29:28.675Z,1.58
2022-09-20T18:31:55.625Z,1.67
2022-09-20T18:34:23.467Z,3.17
2022-09-20T18:36:53.076Z,3.13
2022-09-20T18:39:20.762Z,3.22
2022-09-20T18:41:47.545Z,2.00
2022-09-20T18:44:14.389Z,2.03
2022-09-20T18:46:41.386Z,1.80
2022-09-20T18:49:09.349Z,2.30
2022-09-20T18:51:39.786Z,2.17
2022-09-20T18:54:09.028Z,2.00
2022-09-20T18:56:36.145Z,1.70
2022-09-20T18:59:04.191Z,1.70
2022-09-20T19:01:36.926Z,1.70
2022-09-20T19:04:22.358Z,2.38
2022-09-20T19:06:51.915Z,2.40
2022-09-20T19:09:38.558Z,1.90
2022-09-20T19:12:07.879Z,2.10
2022-09-20T19:14:42.779Z,2.25
2022-09-20T19:17:10.784Z,2.03
2022-09-20T19:19:37.571Z,2.20
2022-09-20T19:22:13.724Z,1.83
2022-09-20T19:24:46.421Z,2.28
2022-09-20T19:27:13.912Z,2.28
2022-09-20T19:29:41.410Z,2.20
2022-09-20T19:32:13.547Z,2.00
2022-09-20T19:34:42.279Z,1.80
2022-09-20T19:37:30.484Z,2.40
2022-09-20T19:40:15.825Z,2.00
2022-09-20T19:42:46.790Z,2.00
2022-09-20T19:45:20.184Z,2.53
2022-09-20T19:47:55.620Z,2.00
2022-09-20T19:52:57.938Z,3.20
2022-09-20T19:55:24.637Z,2.50
2022-09-20T19:57:51.134Z,2.83
2022-09-20T20:00:18.833Z,2.83
2022-09-20T20:02:45.784Z,2.67
2022-09-20T20:05:13.049Z,3.40
2022-09-20T20:07:49.165Z,3.33
2022-09-20T20:10:15.768Z,3.78
2022-09-20T20:12:51.702Z,3.88
2022-09-20T20:15:27.617Z,3.40
2022-09-20T20:18:16.485Z,3.45
2022-09-20T20:20:44.062Z,2.90
2022-09-20T20:23:19.231Z,4.43
2022-09-20T20:25:51.922Z,4.68
2022-09-20T20:28:18.708Z,4.60
2022-09-20T20:30:45.195Z,3.03
2022-09-20T20:33:19.428Z,3.30
2022-09-20T20:35:53.222Z,3.75
2022-09-20T20:38:20.873Z,4.30
2022-09-20T20:40:47.362Z,3.72
2022-09-20T20:43:13.798Z,3.78
2022-09-20T20:45:55.835Z,2.97
2022-09-20T20:49:55.071Z,2.40
2022-09-20T20:52:21.425Z,2.38
2022-09-20T20:54:48.457Z,2.30
2022-09-20T20:57:19.153Z,2.80
2022-09-20T20:59:45.846Z,4.00
2022-09-20T21:02:12.311Z,3.53
2022-09-20T21:04:40.091Z,3.70
2022-09-20T21:07:06.668Z,3.63
2022-09-20T21:09:32.992Z,3.10
2022-09-20T21:11:59.531Z,3.20
2022-09-20T21:14:25.790Z,3.22
2022-09-20T21:16:52.117Z,2.92
2022-09-20T21:19:19.044Z,2.35
2022-09-20T21:21:46.175Z,3.20
2022-09-20T21:24:13.634Z,2.85
2022-09-20T21:26:40.378Z,2.90
2022-09-20T21:29:08.084Z,3.42
2022-09-20T21:31:36.103Z,4.03
2022-09-20T21:34:04.417Z,3.60
2022-09-20T21:36:30.815Z,3.75
2022-09-20T21:38:57.430Z,3.47
2022-09-20T21:41:29.283Z,3.20
2022-09-20T21:43:56.166Z,3.13
2022-09-20T21:46:23.784Z,3.40
2022-09-20T21:48:50.569Z,2.92
2022-09-20T21:51:18.203Z,3.47
2022-09-20T21:53:45.215Z,2.30
2022-09-20T21:56:12.572Z,2.00
2022-09-20T21:58:39.974Z,2.58
2022-09-20T22:01:13.977Z,2.58
2022-09-20T22:03:50.265Z,1.90
2022-09-20T22:06:20.939Z,2.42
2022-09-20T22:08:51.604Z,2.70
2022-09-20T22:11:18.662Z,2.92
2022-09-20T22:13:46.111Z,2.35
2022-09-20T22:16:13.923Z,2.40
2022-09-20T22:18:41.711Z,2.45
2022-09-20T22:21:09.719Z,2.13
2022-09-20T22:23:36.256Z,2.05
2022-09-20T22:26:04.791Z,2.30
2022-09-20T22:28:31.287Z,2.05
2022-09-20T22:31:02.366Z,2.40
2022-09-20T22:33:28.774Z,2.08
2022-09-20T22:35:55.072Z,2.38
2022-09-20T22:38:21.371Z,2.42
2022-09-20T22:40:54.774Z,2.58
2022-09-20T22:43:21.111Z,2.80
2022-09-20T22:45:47.607Z,2.67
2022-09-20T22:48:14.137Z,3.22
2022-09-20T22:50:40.467Z,3.50
2022-09-20T22:53:06.979Z,3.35
2022-09-20T22:55:33.274Z,3.42
2022-09-20T22:57:59.538Z,3.75
2022-09-20T23:00:25.912Z,3.30
2022-09-20T23:02:56.007Z,3.08
2022-09-20T23:05:22.362Z,2.80
2022-09-20T23:07:48.666Z,2.97
2022-09-20T23:10:15.039Z,2.45
2022-09-20T23:12:41.324Z,2.53
2022-09-20T23:15:08.078Z,3.17
2022-09-20T23:17:34.338Z,3.10
2022-09-20T23:20:00.832Z,3.17
2022-09-20T23:22:27.094Z,2.85
2022-09-20T23:24:53.350Z,2.78
2022-09-20T23:27:19.697Z,2.47
2022-09-20T23:29:45.977Z,2.78
2022-09-20T23:32:12.229Z,2.95
2022-09-20T23:34:38.541Z,3.50
2022-09-20T23:37:04.813Z,3.35
2022-09-20T23:39:31.066Z,3.78
2022-09-20T23:41:57.348Z,2.70
2022-09-20T23:44:23.620Z,2.75
2022-09-20T23:46:49.881Z,2.53
2022-09-20T23:49:16.218Z,2.45
2022-09-20T23:51:42.493Z,2.42
2022-09-20T23:54:08.822Z,2.72
2022-09-20T23:56:35.800Z,3.47
2022-09-20T23:59:02.094Z,2.33
